sensor_id;sensor_type;location;lat;lon;timestamp;temperature;humidity
4451;DHT22;2238;50.180;9.230;2022-10-31T00:00:48;13.20;99.90
4451;DHT22;2238;50.180;9.230;2022-10-31T00:03:49;12.80;99.90
4451;DHT22;2238;50.180;9.230;2022-10-31T00:06:50;15.30;99.90
4451;DHT22;2238;50.180;9.230;2022-10-31T00:09:50;14.80;99.90
4451;DHT22;2238;50.180;9.230;2022-10-31T00:12:51;13.20;99.90
4451;DHT22;2238;50.180;9.230;2022-10-31T00:15:52;13.30;99.90
4451;DHT22;2238;50.180;9.230;2022-10-31T00:18:55;13.10;99.90
4451;DHT22;2238;50.180;9.230;2022-10-31T00:21:56;11.40;99.90
4451;DHT22;2238;50.180;9.230;2022-10-31T00:24:56;12.60;99.90
4451;DHT22;2238;50.180;9.230;2022-10-31T00:27:57;12.80;99.90
4451;DHT22;2238;50.180;9.230;2022-10-31T00:30:59;13.30;99.90
4451;DHT22;2238;50.180;9.230;2022-10-31T00:34:00;13.20;99.90
4451;DHT22;2238;50.180;9.230;2022-10-31T00:37:03;13.70;99.90
4451;DHT22;2238;50.180;9.230;2022-10-31T00:40:04;13.60;99.90
4451;DHT22;2238;50.180;9.230;2022-10-31T00:43:05;13.20;99.90
4451;DHT22;2238;50.180;9.230;2022-10-31T00:46:06;13.30;99.90
4451;DHT22;2238;50.180;9.230;2022-10-31T00:49:06;13.30;99.90
4451;DHT22;2238;50.180;9.230;2022-10-31T00:52:07;12.90;99.90
4451;DHT22;2238;50.180;9.230;2022-10-31T00:55:07;14.30;99.90
4451;DHT22;2238;50.180;9.230;2022-10-31T00:58:08;13.50;99.90
4451;DHT22;2238;50.180;9.230;2022-10-31T01:01:09;12.60;99.90
4451;DHT22;2238;50.180;9.230;2022-10-31T01:04:09;12.50;99.90
4451;DHT22;2238;50.180;9.230;2022-10-31T01:07:10;12.40;99.90
4451;DHT22;2238;50.180;9.230;2022-10-31T01:10:12;12.50;99.90
4451;DHT22;2238;50.180;9.230;2022-10-31T01:13:13;12.60;99.90
4451;DHT22;2238;50.180;9.230;2022-10-31T01:16:18;13.50;99.90
4451;DHT22;2238;50.180;9.230;2022-10-31T01:19:18;12.80;99.90
4451;DHT22;2238;50.180;9.230;2022-10-31T01:22:20;12.80;99.90
4451;DHT22;2238;50.180;9.230;2022-10-31T01:25:20;12.60;99.90
4451;DHT22;2238;50.180;9.230;2022-10-31T01:28:21;12.40;99.90
4451;DHT22;2238;50.180;9.230;2022-10-31T01:31:24;12.40;99.90
4451;DHT22;2238;50.180;9.230;2022-10-31T01:34:25;12.40;99.90
4451;DHT22;2238;50.180;9.230;2022-10-31T01:37:26;12.50;99.90
4451;DHT22;2238;50.180;9.230;2022-10-31T01:40:29;12.80;99.90
4451;DHT22;2238;50.180;9.230;2022-10-31T01:43:52;12.90;99.90
4451;DHT22;2238;50.180;9.230;2022-10-31T01:47:23;12.70;99.90
4451;DHT22;2238;50.180;9.230;2022-10-31T01:50:33;12.40;99.90
4451;DHT22;2238;50.180;9.230;2022-10-31T01:53:35;12.30;99.90
4451;DHT22;2238;50.180;9.230;2022-10-31T01:56:39;12.20;99.90
4451;DHT22;2238;50.180;9.230;2022-10-31T01:59:46;12.20;99.90
4451;DHT22;2238;50.180;9.230;2022-10-31T02:02:49;14.70;99.90
4451;DHT22;2238;50.180;9.230;2022-10-31T02:05:50;12.80;99.90
4451;DHT22;2238;50.180;9.230;2022-10-31T02:08:51;12.30;99.90
4451;DHT22;2238;50.180;9.230;2022-10-31T02:11:55;12.30;99.90
4451;DHT22;2238;50.180;9.230;2022-10-31T02:14:57;14.80;99.90
4451;DHT22;2238;50.180;9.230;2022-10-31T02:17:58;12.30;99.90
4451;DHT22;2238;50.180;9.230;2022-10-31T02:37:22;12.20;99.90
4451;DHT22;2238;50.180;9.230;2022-10-31T02:40:51;12.30;99.90
4451;DHT22;2238;50.180;9.230;2022-10-31T02:44:02;12.40;99.90
4451;DHT22;2238;50.180;9.230;2022-10-31T02:47:10;12.20;99.90
4451;DHT22;2238;50.180;9.230;2022-10-31T02:50:33;12.20;99.90
4451;DHT22;2238;50.180;9.230;2022-10-31T02:53:36;12.10;99.90
4451;DHT22;2238;50.180;9.230;2022-10-31T02:56:37;12.10;99.90
4451;DHT22;2238;50.180;9.230;2022-10-31T02:59:40;12.00;99.90
4451;DHT22;2238;50.180;9.230;2022-10-31T03:03:13;14.30;99.90
4451;DHT22;2238;50.180;9.230;2022-10-31T03:06:27;11.90;99.90
4451;DHT22;2238;50.180;9.230;2022-10-31T03:09:39;12.20;99.90
4451;DHT22;2238;50.180;9.230;2022-10-31T03:15:49;12.50;99.90
4451;DHT22;2238;50.180;9.230;2022-10-31T03:18:55;12.20;99.90
4451;DHT22;2238;50.180;9.230;2022-10-31T03:22:01;12.10;99.90
4451;DHT22;2238;50.180;9.230;2022-10-31T03:25:04;11.90;99.90
4451;DHT22;2238;50.180;9.230;2022-10-31T03:28:06;11.80;99.90
4451;DHT22;2238;50.180;9.230;2022-10-31T03:31:07;11.80;99.90
4451;DHT22;2238;50.180;9.230;2022-10-31T03:34:09;11.70;99.90
4451;DHT22;2238;50.180;9.230;2022-10-31T03:37:15;11.90;99.90
4451;DHT22;2238;50.180;9.230;2022-10-31T03:40:20;11.90;99.90
4451;DHT22;2238;50.180;9.230;2022-10-31T03:43:28;11.90;99.90
4451;DHT22;2238;50.180;9.230;2022-10-31T03:46:30;12.00;99.90
4451;DHT22;2238;50.180;9.230;2022-10-31T03:49:32;11.90;99.90
4451;DHT22;2238;50.180;9.230;2022-10-31T03:52:46;11.90;99.90
4451;DHT22;2238;50.180;9.230;2022-10-31T03:56:04;11.80;99.90
4451;DHT22;2238;50.180;9.230;2022-10-31T03:59:23;12.00;99.90
4451;DHT22;2238;50.180;9.230;2022-10-31T04:02:29;12.10;99.90
4451;DHT22;2238;50.180;9.230;2022-10-31T04:05:30;12.40;99.90
4451;DHT22;2238;50.180;9.230;2022-10-31T04:08:33;12.60;99.90
4451;DHT22;2238;50.180;9.230;2022-10-31T04:11:40;12.40;99.90
4451;DHT22;2238;50.180;9.230;2022-10-31T04:14:45;11.90;99.90
4451;DHT22;2238;50.180;9.230;2022-10-31T04:17:47;12.20;99.90
4451;DHT22;2238;50.180;9.230;2022-10-31T04:20:58;12.00;99.90
4451;DHT22;2238;50.180;9.230;2022-10-31T04:23:59;11.70;99.90
4451;DHT22;2238;50.180;9.230;2022-10-31T04:27:00;11.70;99.90
4451;DHT22;2238;50.180;9.230;2022-10-31T04:30:00;14.00;99.90
4451;DHT22;2238;50.180;9.230;2022-10-31T04:33:01;11.80;99.90
4451;DHT22;2238;50.180;9.230;2022-10-31T04:36:02;12.10;99.90
4451;DHT22;2238;50.180;9.230;2022-10-31T04:39:02;11.80;99.90
4451;DHT22;2238;50.180;9.230;2022-10-31T04:42:03;11.70;99.90
4451;DHT22;2238;50.180;9.230;2022-10-31T04:45:04;11.90;99.90
4451;DHT22;2238;50.180;9.230;2022-10-31T04:48:05;11.90;99.90
4451;DHT22;2238;50.180;9.230;2022-10-31T04:51:05;12.70;99.90
4451;DHT22;2238;50.180;9.230;2022-10-31T04:54:06;14.30;99.90
4451;DHT22;2238;50.180;9.230;2022-10-31T04:57:07;11.80;99.90
4451;DHT22;2238;50.180;9.230;2022-10-31T05:00:08;11.80;99.90
4451;DHT22;2238;50.180;9.230;2022-10-31T05:03:09;12.10;99.90
4451;DHT22;2238;50.180;9.230;2022-10-31T05:06:09;12.20;99.90
4451;DHT22;2238;50.180;9.230;2022-10-31T05:09:10;12.30;99.90
4451;DHT22;2238;50.180;9.230;2022-10-31T05:12:11;12.40;99.90
4451;DHT22;2238;50.180;9.230;2022-10-31T05:15:11;12.40;99.90
4451;DHT22;2238;50.180;9.230;2022-10-31T05:18:12;14.10;99.90
4451;DHT22;2238;50.180;9.230;2022-10-31T05:21:12;12.30;99.90
4451;DHT22;2238;50.180;9.230;2022-10-31T05:24:13;12.20;99.90
4451;DHT22;2238;50.180;9.230;2022-10-31T05:27:13;11.90;99.90
4451;DHT22;2238;50.180;9.230;2022-10-31T05:30:17;12.20;99.90
4451;DHT22;2238;50.180;9.230;2022-10-31T05:33:18;12.20;99.90
4451;DHT22;2238;50.180;9.230;2022-10-31T05:36:18;12.20;99.90
4451;DHT22;2238;50.180;9.230;2022-10-31T05:39:19;12.30;99.90
4451;DHT22;2238;50.180;9.230;2022-10-31T05:42:19;12.40;99.90
4451;DHT22;2238;50.180;9.230;2022-10-31T05:45:21;12.20;99.90
4451;DHT22;2238;50.180;9.230;2022-10-31T05:48:22;12.30;99.90
4451;DHT22;2238;50.180;9.230;2022-10-31T05:51:23;14.20;99.90
4451;DHT22;2238;50.180;9.230;2022-10-31T05:54:23;11.40;99.90
4451;DHT22;2238;50.180;9.230;2022-10-31T05:57:24;10.90;99.90
4451;DHT22;2238;50.180;9.230;2022-10-31T06:00:27;10.30;99.90
4451;DHT22;2238;50.180;9.230;2022-10-31T06:03:28;10.30;99.90
4451;DHT22;2238;50.180;9.230;2022-10-31T06:06:28;10.30;99.90
4451;DHT22;2238;50.180;9.230;2022-10-31T06:09:29;10.20;99.90
4451;DHT22;2238;50.180;9.230;2022-10-31T06:12:30;10.60;99.90
4451;DHT22;2238;50.180;9.230;2022-10-31T06:15:30;10.50;99.90
4451;DHT22;2238;50.180;9.230;2022-10-31T06:18:31;10.30;99.90
4451;DHT22;2238;50.180;9.230;2022-10-31T06:21:31;10.80;99.90
4451;DHT22;2238;50.180;9.230;2022-10-31T06:24:32;10.80;99.90
4451;DHT22;2238;50.180;9.230;2022-10-31T06:27:33;10.70;99.90
4451;DHT22;2238;50.180;9.230;2022-10-31T06:30:33;10.60;99.90
4451;DHT22;2238;50.180;9.230;2022-10-31T06:33:34;11.00;99.90
4451;DHT22;2238;50.180;9.230;2022-10-31T06:36:35;11.30;99.90
4451;DHT22;2238;50.180;9.230;2022-10-31T06:39:35;11.30;99.90
4451;DHT22;2238;50.180;9.230;2022-10-31T06:42:36;11.10;99.90
4451;DHT22;2238;50.180;9.230;2022-10-31T06:45:37;11.20;99.90
4451;DHT22;2238;50.180;9.230;2022-10-31T06:48:37;11.40;99.90
4451;DHT22;2238;50.180;9.230;2022-10-31T06:51:38;11.10;99.90
4451;DHT22;2238;50.180;9.230;2022-10-31T06:54:39;11.30;99.90
4451;DHT22;2238;50.180;9.230;2022-10-31T06:57:39;13.10;99.90
4451;DHT22;2238;50.180;9.230;2022-10-31T07:00:40;11.90;99.90
4451;DHT22;2238;50.180;9.230;2022-10-31T07:03:40;11.90;99.90
4451;DHT22;2238;50.180;9.230;2022-10-31T07:06:41;12.10;99.90
4451;DHT22;2238;50.180;9.230;2022-10-31T07:09:41;13.00;99.90
4451;DHT22;2238;50.180;9.230;2022-10-31T07:12:42;12.30;99.90
4451;DHT22;2238;50.180;9.230;2022-10-31T07:15:43;12.40;99.90
4451;DHT22;2238;50.180;9.230;2022-10-31T07:18:44;12.50;99.90
4451;DHT22;2238;50.180;9.230;2022-10-31T07:21:44;12.60;99.90
4451;DHT22;2238;50.180;9.230;2022-10-31T07:24:45;12.60;99.90
4451;DHT22;2238;50.180;9.230;2022-10-31T07:27:45;12.80;99.90
4451;DHT22;2238;50.180;9.230;2022-10-31T07:30:53;15.00;99.90
4451;DHT22;2238;50.180;9.230;2022-10-31T07:33:53;15.60;99.90
4451;DHT22;2238;50.180;9.230;2022-10-31T07:36:54;13.10;99.90
4451;DHT22;2238;50.180;9.230;2022-10-31T07:39:55;13.00;99.90
4451;DHT22;2238;50.180;9.230;2022-10-31T07:42:57;15.20;99.90
4451;DHT22;2238;50.180;9.230;2022-10-31T07:45:58;13.50;99.90
4451;DHT22;2238;50.180;9.230;2022-10-31T07:48:59;16.50;99.90
4451;DHT22;2238;50.180;9.230;2022-10-31T07:51:59;14.20;99.90
4451;DHT22;2238;50.180;9.230;2022-10-31T07:55:00;15.00;99.90
4451;DHT22;2238;50.180;9.230;2022-10-31T07:58:03;15.90;99.90
4451;DHT22;2238;50.180;9.230;2022-10-31T08:01:04;14.90;99.90
4451;DHT22;2238;50.180;9.230;2022-10-31T08:04:05;14.80;99.90
4451;DHT22;2238;50.180;9.230;2022-10-31T08:07:06;15.00;99.90
4451;DHT22;2238;50.180;9.230;2022-10-31T08:10:06;15.40;99.90
4451;DHT22;2238;50.180;9.230;2022-10-31T08:13:09;15.60;99.90
4451;DHT22;2238;50.180;9.230;2022-10-31T08:16:10;17.00;99.90
4451;DHT22;2238;50.180;9.230;2022-10-31T08:19:11;17.20;99.90
4451;DHT22;2238;50.180;9.230;2022-10-31T08:22:11;17.20;99.90
4451;DHT22;2238;50.180;9.230;2022-10-31T08:25:12;16.70;99.90
4451;DHT22;2238;50.180;9.230;2022-10-31T08:28:13;16.00;99.90
4451;DHT22;2238;50.180;9.230;2022-10-31T08:31:14;15.60;99.90
4451;DHT22;2238;50.180;9.230;2022-10-31T08:34:14;15.20;99.90
4451;DHT22;2238;50.180;9.230;2022-10-31T08:37:15;15.20;99.90
4451;DHT22;2238;50.180;9.230;2022-10-31T08:40:20;15.10;99.90
4451;DHT22;2238;50.180;9.230;2022-10-31T08:43:20;15.30;99.90
4451;DHT22;2238;50.180;9.230;2022-10-31T08:46:21;15.30;99.90
4451;DHT22;2238;50.180;9.230;2022-10-31T08:49:22;15.50;99.90
4451;DHT22;2238;50.180;9.230;2022-10-31T08:52:23;15.50;99.90
4451;DHT22;2238;50.180;9.230;2022-10-31T08:55:25;15.60;99.90
4451;DHT22;2238;50.180;9.230;2022-10-31T08:58:25;15.70;99.90
4451;DHT22;2238;50.180;9.230;2022-10-31T09:01:26;15.40;99.90
4451;DHT22;2238;50.180;9.230;2022-10-31T09:04:26;15.60;99.90
4451;DHT22;2238;50.180;9.230;2022-10-31T09:07:27;16.50;99.90
4451;DHT22;2238;50.180;9.230;2022-10-31T09:10:28;15.10;99.90
4451;DHT22;2238;50.180;9.230;2022-10-31T09:13:30;15.40;99.90
4451;DHT22;2238;50.180;9.230;2022-10-31T09:16:30;15.50;99.90
4451;DHT22;2238;50.180;9.230;2022-10-31T09:19:31;16.50;99.90
4451;DHT22;2238;50.180;9.230;2022-10-31T09:22:31;16.40;99.90
4451;DHT22;2238;50.180;9.230;2022-10-31T09:25:32;16.90;99.90
4451;DHT22;2238;50.180;9.230;2022-10-31T09:28:33;17.30;99.90
4451;DHT22;2238;50.180;9.230;2022-10-31T09:31:34;17.40;99.90
4451;DHT22;2238;50.180;9.230;2022-10-31T09:34:34;18.10;99.90
4451;DHT22;2238;50.180;9.230;2022-10-31T09:37:35;17.80;99.90
4451;DHT22;2238;50.180;9.230;2022-10-31T09:50:42;17.60;99.90
4451;DHT22;2238;50.180;9.230;2022-10-31T09:53:48;20.80;99.90
4451;DHT22;2238;50.180;9.230;2022-10-31T09:56:50;18.90;99.90
4451;DHT22;2238;50.180;9.230;2022-10-31T09:59:51;18.50;99.90
4451;DHT22;2238;50.180;9.230;2022-10-31T10:03:07;18.60;99.90
4451;DHT22;2238;50.180;9.230;2022-10-31T10:06:23;18.70;99.90
4451;DHT22;2238;50.180;9.230;2022-10-31T10:09:26;18.80;99.90
4451;DHT22;2238;50.180;9.230;2022-10-31T10:12:59;19.20;99.90
4451;DHT22;2238;50.180;9.230;2022-10-31T10:26:47;19.40;99.90
4451;DHT22;2238;50.180;9.230;2022-10-31T10:29:50;19.20;99.90
4451;DHT22;2238;50.180;9.230;2022-10-31T10:56:51;19.40;99.90
4451;DHT22;2238;50.180;9.230;2022-10-31T10:59:55;19.40;99.90
4451;DHT22;2238;50.180;9.230;2022-10-31T11:02:56;19.40;99.90
4451;DHT22;2238;50.180;9.230;2022-10-31T11:05:57;19.50;99.90
4451;DHT22;2238;50.180;9.230;2022-10-31T11:09:09;19.30;99.90
4451;DHT22;2238;50.180;9.230;2022-10-31T11:15:23;19.60;99.90
4451;DHT22;2238;50.180;9.230;2022-10-31T11:18:30;19.60;99.90
4451;DHT22;2238;50.180;9.230;2022-10-31T11:21:32;21.20;99.90
4451;DHT22;2238;50.180;9.230;2022-10-31T11:24:40;19.60;99.90
4451;DHT22;2238;50.180;9.230;2022-10-31T11:27:41;20.60;99.90
4451;DHT22;2238;50.180;9.230;2022-10-31T11:33:59;19.10;99.90
4451;DHT22;2238;50.180;9.230;2022-10-31T11:37:15;19.70;99.90
4451;DHT22;2238;50.180;9.230;2022-10-31T11:40:22;19.30;99.90
4451;DHT22;2238;50.180;9.230;2022-10-31T11:43:24;21.00;99.90
4451;DHT22;2238;50.180;9.230;2022-10-31T11:46:38;19.40;99.90
4451;DHT22;2238;50.180;9.230;2022-10-31T11:49:46;19.30;99.90
4451;DHT22;2238;50.180;9.230;2022-10-31T11:52:52;19.30;99.90
4451;DHT22;2238;50.180;9.230;2022-10-31T11:59:04;19.30;99.90
4451;DHT22;2238;50.180;9.230;2022-10-31T12:02:18;19.40;99.90
4451;DHT22;2238;50.180;9.230;2022-10-31T12:05:23;19.50;99.90
4451;DHT22;2238;50.180;9.230;2022-10-31T12:08:29;19.40;99.90
4451;DHT22;2238;50.180;9.230;2022-10-31T12:32:29;19.40;99.90
4451;DHT22;2238;50.180;9.230;2022-10-31T12:39:46;19.60;99.90
4451;DHT22;2238;50.180;9.230;2022-10-31T12:46:50;19.40;99.90
4451;DHT22;2238;50.180;9.230;2022-10-31T12:53:01;19.40;99.90
4451;DHT22;2238;50.180;9.230;2022-10-31T12:56:20;19.20;99.90
4451;DHT22;2238;50.180;9.230;2022-10-31T13:03:22;19.40;99.90
4451;DHT22;2238;50.180;9.230;2022-10-31T13:06:32;19.50;99.90
4451;DHT22;2238;50.180;9.230;2022-10-31T13:09:42;19.40;99.90
4451;DHT22;2238;50.180;9.230;2022-10-31T13:12:48;19.50;99.90
4451;DHT22;2238;50.180;9.230;2022-10-31T13:19:01;19.50;99.90
4451;DHT22;2238;50.180;9.230;2022-10-31T13:22:06;19.50;99.90
4451;DHT22;2238;50.180;9.230;2022-10-31T13:31:26;19.20;99.90
4451;DHT22;2238;50.180;9.230;2022-10-31T13:34:45;19.40;99.90
4451;DHT22;2238;50.180;9.230;2022-10-31T13:37:54;19.60;99.90
4451;DHT22;2238;50.180;9.230;2022-10-31T13:41:10;21.50;99.90
4451;DHT22;2238;50.180;9.230;2022-10-31T13:44:22;19.50;99.90
4451;DHT22;2238;50.180;9.230;2022-10-31T13:47:28;19.40;99.90
4451;DHT22;2238;50.180;9.230;2022-10-31T13:50:31;19.30;99.90
4451;DHT22;2238;50.180;9.230;2022-10-31T13:56:39;19.50;99.90
4451;DHT22;2238;50.180;9.230;2022-10-31T13:59:53;19.30;99.90
4451;DHT22;2238;50.180;9.230;2022-10-31T14:02:56;19.30;99.90
4451;DHT22;2238;50.180;9.230;2022-10-31T14:05:57;19.30;99.90
4451;DHT22;2238;50.180;9.230;2022-10-31T14:08:58;19.20;99.90
4451;DHT22;2238;50.180;9.230;2022-10-31T14:12:03;20.30;99.90
4451;DHT22;2238;50.180;9.230;2022-10-31T14:15:22;19.00;99.90
4451;DHT22;2238;50.180;9.230;2022-10-31T14:18:28;19.00;99.90
4451;DHT22;2238;50.180;9.230;2022-10-31T14:21:35;19.00;99.90
4451;DHT22;2238;50.180;9.230;2022-10-31T14:24:37;18.90;99.90
4451;DHT22;2238;50.180;9.230;2022-10-31T14:27:45;18.70;99.90
4451;DHT22;2238;50.180;9.230;2022-10-31T14:30:55;18.90;99.90
4451;DHT22;2238;50.180;9.230;2022-10-31T14:33:56;18.70;99.90
4451;DHT22;2238;50.180;9.230;2022-10-31T14:50:50;18.40;99.90
4451;DHT22;2238;50.180;9.230;2022-10-31T14:53:54;18.40;99.90
4451;DHT22;2238;50.180;9.230;2022-10-31T14:57:01;18.30;99.90
4451;DHT22;2238;50.180;9.230;2022-10-31T15:00:07;18.30;99.90
4451;DHT22;2238;50.180;9.230;2022-10-31T15:03:25;18.20;99.90
4451;DHT22;2238;50.180;9.230;2022-10-31T15:06:35;18.10;99.90
4451;DHT22;2238;50.180;9.230;2022-10-31T15:09:38;17.90;99.90
4451;DHT22;2238;50.180;9.230;2022-10-31T15:12:41;18.00;99.90
4451;DHT22;2238;50.180;9.230;2022-10-31T15:15:42;18.10;99.90
4451;DHT22;2238;50.180;9.230;2022-10-31T15:18:57;18.20;99.90
4451;DHT22;2238;50.180;9.230;2022-10-31T15:21:59;17.90;99.90
4451;DHT22;2238;50.180;9.230;2022-10-31T15:25:00;18.10;99.90
4451;DHT22;2238;50.180;9.230;2022-10-31T15:28:01;17.90;99.90
4451;DHT22;2238;50.180;9.230;2022-10-31T15:31:15;20.10;99.90
4451;DHT22;2238;50.180;9.230;2022-10-31T15:34:42;16.90;99.90
4451;DHT22;2238;50.180;9.230;2022-10-31T15:37:41;15.60;99.90
4451;DHT22;2238;50.180;9.230;2022-10-31T15:40:52;17.80;99.90
4451;DHT22;2238;50.180;9.230;2022-10-31T15:43:55;17.70;99.90
4451;DHT22;2238;50.180;9.230;2022-10-31T15:47:03;18.10;99.90
4451;DHT22;2238;50.180;9.230;2022-10-31T15:50:17;17.60;99.90
4451;DHT22;2238;50.180;9.230;2022-10-31T15:53:33;17.50;99.90
4451;DHT22;2238;50.180;9.230;2022-10-31T15:56:35;17.30;99.90
4451;DHT22;2238;50.180;9.230;2022-10-31T15:59:35;17.30;99.90
4451;DHT22;2238;50.180;9.230;2022-10-31T16:02:36;17.20;99.90
4451;DHT22;2238;50.180;9.230;2022-10-31T16:05:51;17.30;99.90
4451;DHT22;2238;50.180;9.230;2022-10-31T16:08:52;17.30;99.90
4451;DHT22;2238;50.180;9.230;2022-10-31T16:11:53;17.30;99.90
4451;DHT22;2238;50.180;9.230;2022-10-31T16:14:55;17.40;99.90
4451;DHT22;2238;50.180;9.230;2022-10-31T16:17:56;17.20;99.90
4451;DHT22;2238;50.180;9.230;2022-10-31T16:20:57;16.70;99.90
4451;DHT22;2238;50.180;9.230;2022-10-31T16:24:01;17.30;99.90
4451;DHT22;2238;50.180;9.230;2022-10-31T16:27:05;16.20;99.90
4451;DHT22;2238;50.180;9.230;2022-10-31T16:33:35;16.40;99.90
4451;DHT22;2238;50.180;9.230;2022-10-31T16:36:41;16.50;99.90
4451;DHT22;2238;50.180;9.230;2022-10-31T16:39:42;16.00;99.90
4451;DHT22;2238;50.180;9.230;2022-10-31T16:42:43;15.60;99.90
4451;DHT22;2238;50.180;9.230;2022-10-31T16:45:52;15.50;99.90
4451;DHT22;2238;50.180;9.230;2022-10-31T16:48:53;15.30;99.90
4451;DHT22;2238;50.180;9.230;2022-10-31T16:51:54;15.30;99.90
4451;DHT22;2238;50.180;9.230;2022-10-31T16:54:55;15.30;99.90
4451;DHT22;2238;50.180;9.230;2022-10-31T16:57:57;15.50;99.90
4451;DHT22;2238;50.180;9.230;2022-10-31T17:00:59;17.30;99.90
4451;DHT22;2238;50.180;9.230;2022-10-31T17:03:59;16.40;99.90
4451;DHT22;2238;50.180;9.230;2022-10-31T17:07:00;16.60;99.90
4451;DHT22;2238;50.180;9.230;2022-10-31T17:10:01;16.40;99.90
4451;DHT22;2238;50.180;9.230;2022-10-31T17:13:02;16.20;99.90
4451;DHT22;2238;50.180;9.230;2022-10-31T17:16:04;16.30;99.90
4451;DHT22;2238;50.180;9.230;2022-10-31T17:19:05;16.30;99.90
4451;DHT22;2238;50.180;9.230;2022-10-31T17:22:05;16.10;99.90
4451;DHT22;2238;50.180;9.230;2022-10-31T17:25:10;16.00;99.90
4451;DHT22;2238;50.180;9.230;2022-10-31T17:28:13;16.00;99.90
4451;DHT22;2238;50.180;9.230;2022-10-31T17:31:27;16.00;99.90
4451;DHT22;2238;50.180;9.230;2022-10-31T17:34:28;16.00;99.90
4451;DHT22;2238;50.180;9.230;2022-10-31T17:37:28;16.90;99.90
4451;DHT22;2238;50.180;9.230;2022-10-31T17:40:29;15.90;99.90
4451;DHT22;2238;50.180;9.230;2022-10-31T17:43:30;17.40;99.90
4451;DHT22;2238;50.180;9.230;2022-10-31T17:46:30;18.00;99.90
4451;DHT22;2238;50.180;9.230;2022-10-31T17:49:31;16.80;99.90
4451;DHT22;2238;50.180;9.230;2022-10-31T17:52:31;16.30;99.90
4451;DHT22;2238;50.180;9.230;2022-10-31T17:55:32;16.50;99.90
4451;DHT22;2238;50.180;9.230;2022-10-31T17:58:36;16.20;99.90
4451;DHT22;2238;50.180;9.230;2022-10-31T18:01:37;16.30;99.90
4451;DHT22;2238;50.180;9.230;2022-10-31T18:04:38;16.30;99.90
4451;DHT22;2238;50.180;9.230;2022-10-31T18:07:40;16.20;99.90
4451;DHT22;2238;50.180;9.230;2022-10-31T18:10:40;16.20;99.90
4451;DHT22;2238;50.180;9.230;2022-10-31T18:13:41;17.10;99.90
4451;DHT22;2238;50.180;9.230;2022-10-31T18:16:42;16.10;99.90
4451;DHT22;2238;50.180;9.230;2022-10-31T18:19:42;17.20;99.90
4451;DHT22;2238;50.180;9.230;2022-10-31T18:22:43;16.60;99.90
4451;DHT22;2238;50.180;9.230;2022-10-31T18:25:44;16.50;99.90
4451;DHT22;2238;50.180;9.230;2022-10-31T18:28:44;16.00;99.90
4451;DHT22;2238;50.180;9.230;2022-10-31T18:31:45;15.70;99.90
4451;DHT22;2238;50.180;9.230;2022-10-31T18:34:47;15.60;99.90
4451;DHT22;2238;50.180;9.230;2022-10-31T18:37:48;17.30;99.90
4451;DHT22;2238;50.180;9.230;2022-10-31T18:40:50;15.90;99.90
4451;DHT22;2238;50.180;9.230;2022-10-31T18:43:51;15.90;99.90
4451;DHT22;2238;50.180;9.230;2022-10-31T18:46:55;15.80;99.90
4451;DHT22;2238;50.180;9.230;2022-10-31T18:49:56;16.90;99.90
4451;DHT22;2238;50.180;9.230;2022-10-31T18:52:56;15.00;99.90
4451;DHT22;2238;50.180;9.230;2022-10-31T18:55:57;15.20;99.90
4451;DHT22;2238;50.180;9.230;2022-10-31T18:58:59;15.40;99.90
4451;DHT22;2238;50.180;9.230;2022-10-31T19:02:02;15.10;99.90
4451;DHT22;2238;50.180;9.230;2022-10-31T19:05:03;15.10;99.90
4451;DHT22;2238;50.180;9.230;2022-10-31T19:08:04;15.40;99.90
4451;DHT22;2238;50.180;9.230;2022-10-31T19:11:10;15.90;99.90
4451;DHT22;2238;50.180;9.230;2022-10-31T19:14:12;15.70;99.90
4451;DHT22;2238;50.180;9.230;2022-10-31T19:17:13;15.70;99.90
4451;DHT22;2238;50.180;9.230;2022-10-31T19:20:14;15.60;99.90
4451;DHT22;2238;50.180;9.230;2022-10-31T19:23:14;15.50;99.90
4451;DHT22;2238;50.180;9.230;2022-10-31T19:26:16;15.50;99.90
4451;DHT22;2238;50.180;9.230;2022-10-31T19:29:17;16.50;99.90
4451;DHT22;2238;50.180;9.230;2022-10-31T19:32:17;15.50;99.90
4451;DHT22;2238;50.180;9.230;2022-10-31T19:35:18;16.10;99.90
4451;DHT22;2238;50.180;9.230;2022-10-31T19:38:18;15.40;99.90
4451;DHT22;2238;50.180;9.230;2022-10-31T19:41:23;16.20;99.90
4451;DHT22;2238;50.180;9.230;2022-10-31T19:44:24;15.50;99.90
4451;DHT22;2238;50.180;9.230;2022-10-31T19:47:25;16.20;99.90
4451;DHT22;2238;50.180;9.230;2022-10-31T19:50:25;15.80;99.90
4451;DHT22;2238;50.180;9.230;2022-10-31T19:53:28;15.60;99.90
4451;DHT22;2238;50.180;9.230;2022-10-31T19:56:29;15.70;99.90
4451;DHT22;2238;50.180;9.230;2022-10-31T19:59:30;16.40;99.90
4451;DHT22;2238;50.180;9.230;2022-10-31T20:02:31;15.80;99.90
4451;DHT22;2238;50.180;9.230;2022-10-31T20:05:32;16.70;99.90
4451;DHT22;2238;50.180;9.230;2022-10-31T20:08:32;15.00;99.90
4451;DHT22;2238;50.180;9.230;2022-10-31T20:11:36;14.70;99.90
4451;DHT22;2238;50.180;9.230;2022-10-31T20:14:37;14.80;99.90
4451;DHT22;2238;50.180;9.230;2022-10-31T20:17:38;16.20;99.90
4451;DHT22;2238;50.180;9.230;2022-10-31T20:20:39;17.30;99.90
4451;DHT22;2238;50.180;9.230;2022-10-31T20:23:40;15.10;99.90
4451;DHT22;2238;50.180;9.230;2022-10-31T20:26:41;16.50;99.90
4451;DHT22;2238;50.180;9.230;2022-10-31T20:29:41;14.70;99.90
4451;DHT22;2238;50.180;9.230;2022-10-31T20:32:42;16.50;99.90
4451;DHT22;2238;50.180;9.230;2022-10-31T20:35:43;17.10;99.90
4451;DHT22;2238;50.180;9.230;2022-10-31T20:38:44;16.40;99.90
4451;DHT22;2238;50.180;9.230;2022-10-31T20:41:44;15.40;99.90
4451;DHT22;2238;50.180;9.230;2022-10-31T20:44:45;14.90;99.90
4451;DHT22;2238;50.180;9.230;2022-10-31T20:47:46;14.20;99.90
4451;DHT22;2238;50.180;9.230;2022-10-31T20:50:46;15.00;99.90
4451;DHT22;2238;50.180;9.230;2022-10-31T20:53:51;15.00;99.90
4451;DHT22;2238;50.180;9.230;2022-10-31T20:56:52;15.20;99.90
4451;DHT22;2238;50.180;9.230;2022-10-31T20:59:53;14.10;99.90
4451;DHT22;2238;50.180;9.230;2022-10-31T21:02:54;14.30;99.90
4451;DHT22;2238;50.180;9.230;2022-10-31T21:05:59;14.00;99.90
4451;DHT22;2238;50.180;9.230;2022-10-31T21:09:00;13.60;99.90
4451;DHT22;2238;50.180;9.230;2022-10-31T21:12:00;13.40;99.90
4451;DHT22;2238;50.180;9.230;2022-10-31T21:15:01;13.70;99.90
4451;DHT22;2238;50.180;9.230;2022-10-31T21:18:01;14.00;99.90
4451;DHT22;2238;50.180;9.230;2022-10-31T21:21:32;15.50;99.90
4451;DHT22;2238;50.180;9.230;2022-10-31T21:24:33;14.20;99.90
4451;DHT22;2238;50.180;9.230;2022-10-31T21:27:34;14.10;99.90
4451;DHT22;2238;50.180;9.230;2022-10-31T21:30:42;14.10;99.90
4451;DHT22;2238;50.180;9.230;2022-10-31T21:33:44;14.20;99.90
4451;DHT22;2238;50.180;9.230;2022-10-31T21:36:45;14.80;99.90
4451;DHT22;2238;50.180;9.230;2022-10-31T21:39:46;14.10;99.90
4451;DHT22;2238;50.180;9.230;2022-10-31T21:42:46;14.20;99.90
4451;DHT22;2238;50.180;9.230;2022-10-31T21:45:47;14.00;99.90
4451;DHT22;2238;50.180;9.230;2022-10-31T21:48:48;14.00;99.90
4451;DHT22;2238;50.180;9.230;2022-10-31T21:51:48;14.00;99.90
4451;DHT22;2238;50.180;9.230;2022-10-31T21:54:49;13.90;99.90
4451;DHT22;2238;50.180;9.230;2022-10-31T21:57:49;14.20;99.90
4451;DHT22;2238;50.180;9.230;2022-10-31T22:00:50;13.70;99.90
4451;DHT22;2238;50.180;9.230;2022-10-31T22:03:50;15.50;99.90
4451;DHT22;2238;50.180;9.230;2022-10-31T22:06:51;14.50;99.90
4451;DHT22;2238;50.180;9.230;2022-10-31T22:09:52;14.20;99.90
4451;DHT22;2238;50.180;9.230;2022-10-31T22:12:52;14.20;99.90
4451;DHT22;2238;50.180;9.230;2022-10-31T22:15:53;14.10;99.90